createdAt,value
2017-09-29T14:48:08.212Z,18.94
2017-09-29T15:26:25.508Z,18.59
2017-09-29T15:28:52.673Z,18.63
2017-09-29T15:31:20.130Z,18.61
2017-09-29T15:33:47.286Z,18.58
2017-09-29T15:36:14.424Z,18.58
2017-09-29T15:38:41.579Z,18.58
2017-09-29T15:41:08.731Z,18.59
2017-09-29T15:43:35.916Z,18.60
2017-09-29T15:46:03.069Z,18.60
2017-09-29T15:48:30.223Z,18.61
2017-09-29T15:50:57.375Z,18.62
2017-09-29T15:53:24.509Z,18.62
2017-09-29T15:55:51.645Z,18.62
2017-09-29T15:58:18.809Z,18.63
2017-09-29T16:00:45.954Z,18.64
2017-09-29T16:03:13.113Z,18.64
2017-09-29T16:05:40.268Z,18.66
2017-09-29T16:08:07.419Z,18.68
2017-09-29T16:10:34.557Z,18.69
2017-09-29T16:13:01.693Z,18.69
2017-09-29T16:15:28.844Z,18.68
2017-09-29T16:17:55.981Z,18.68
2017-09-29T16:20:23.122Z,18.67
2017-09-29T16:22:50.276Z,18.69
2017-09-29T16:25:18.873Z,18.74
2017-09-29T16:27:46.023Z,18.72
2017-09-29T16:30:13.486Z,18.73
2017-09-29T16:32:41.411Z,18.73
2017-09-29T16:35:08.559Z,18.73
2017-09-29T16:37:35.698Z,18.74
2017-09-29T16:40:02.866Z,18.74
2017-09-29T16:42:30.010Z,18.73
2017-09-29T16:44:57.172Z,18.74
2017-09-29T16:47:24.308Z,18.75
2017-09-29T16:49:51.459Z,18.75
2017-09-29T16:52:18.612Z,18.76
2017-09-29T16:54:45.750Z,18.83
2017-09-29T16:57:12.893Z,18.90
2017-09-29T16:59:40.038Z,18.96
2017-09-29T17:02:07.182Z,18.97
2017-09-29T17:04:34.322Z,18.98
2017-09-29T17:07:01.473Z,19.00
2017-09-29T17:09:30.199Z,19.06
2017-09-29T17:11:58.173Z,19.09
2017-09-29T17:14:25.516Z,19.10
2017-09-29T17:16:52.664Z,19.10
2017-09-29T17:19:20.220Z,19.10
2017-09-29T17:21:47.412Z,19.12
2017-09-29T17:24:14.572Z,19.12
2017-09-29T17:26:41.735Z,19.12
2017-09-29T17:29:08.912Z,19.12
2017-09-29T17:31:36.551Z,19.13
2017-09-29T17:34:03.690Z,19.14
2017-09-29T17:36:30.830Z,19.18
2017-09-29T17:38:58.005Z,19.16
2017-09-29T17:41:25.170Z,19.17
2017-09-29T17:43:52.337Z,19.16
2017-09-29T17:46:19.489Z,19.10
2017-09-29T17:48:46.644Z,19.07
2017-09-29T17:51:13.805Z,19.03
2017-09-29T17:53:40.964Z,19.04
2017-09-29T17:56:08.108Z,19.01
2017-09-29T17:58:35.249Z,19.00
2017-09-29T18:01:02.394Z,19.01
2017-09-29T18:03:29.730Z,19.01
2017-09-29T18:05:56.883Z,19.03
2017-09-29T18:08:24.030Z,19.03
2017-09-29T18:10:51.172Z,18.98
2017-09-29T18:13:19.085Z,18.88
2017-09-29T18:15:46.233Z,18.81
2017-09-29T18:18:13.400Z,18.77
2017-09-29T18:20:40.538Z,18.74
2017-09-29T18:23:07.678Z,18.73
2017-09-29T18:25:34.818Z,18.71
2017-09-29T18:28:01.966Z,18.70
2017-09-29T18:30:29.105Z,18.69
2017-09-29T18:32:56.265Z,18.68
2017-09-29T18:35:23.419Z,18.68
2017-09-29T18:37:50.584Z,18.67
2017-09-29T18:40:23.601Z,18.66
2017-09-29T18:42:50.759Z,18.65
2017-09-29T18:45:23.443Z,18.67
2017-09-29T18:47:50.595Z,18.66
2017-09-29T18:50:17.745Z,18.63
2017-09-29T18:52:44.886Z,18.63
2017-09-29T18:55:12.184Z,18.62
2017-09-29T18:57:39.386Z,18.62
2017-09-29T19:00:06.548Z,18.61
2017-09-29T19:02:33.808Z,18.60
2017-09-29T19:05:00.976Z,18.60
2017-09-29T19:07:28.135Z,18.60
2017-09-29T19:09:55.578Z,18.59
2017-09-29T19:12:22.920Z,18.59
2017-09-29T19:14:50.413Z,18.58
2017-09-29T19:17:17.591Z,18.58
2017-09-29T19:19:44.751Z,18.58
2017-09-29T19:22:11.902Z,18.57
2017-09-29T19:24:39.156Z,18.56
2017-09-29T19:27:06.361Z,18.57
2017-09-29T19:29:33.800Z,18.56
2017-09-29T19:32:00.992Z,18.56
2017-09-29T19:34:28.422Z,18.56
2017-09-29T19:36:55.573Z,18.56
2017-09-29T19:39:23.045Z,18.55
2017-09-29T19:41:50.505Z,18.55
2017-09-29T19:44:17.945Z,18.55
2017-09-29T19:46:45.129Z,18.55
2017-09-29T19:49:12.289Z,18.54
2017-09-29T19:51:39.945Z,18.54
2017-09-29T19:54:07.452Z,18.53
2017-09-29T19:56:35.372Z,18.53
2017-09-29T19:59:02.509Z,18.53
2017-09-29T20:01:29.842Z,18.53
2017-09-29T20:03:56.987Z,18.52
2017-09-29T20:06:24.144Z,18.52
2017-09-29T20:08:51.296Z,18.52
2017-09-29T20:11:18.451Z,18.52
2017-09-29T20:13:45.607Z,18.52
2017-09-29T20:16:12.755Z,18.52
2017-09-29T20:18:39.908Z,18.51
2017-09-29T20:21:07.050Z,18.52
2017-09-29T20:23:34.204Z,18.51
2017-09-29T20:26:01.360Z,18.51
2017-09-29T20:28:28.497Z,18.51
2017-09-29T20:30:55.642Z,18.51
2017-09-29T20:33:22.794Z,18.51
2017-09-29T20:35:49.952Z,18.51
2017-09-29T20:38:17.382Z,18.51
2017-09-29T20:40:44.548Z,18.51
2017-09-29T20:43:11.691Z,18.50
2017-09-29T20:45:38.861Z,18.50
2017-09-29T20:48:06.002Z,18.50
2017-09-29T20:50:33.145Z,18.50
2017-09-29T20:53:00.304Z,18.50
2017-09-29T20:55:27.455Z,18.50
2017-09-29T20:57:54.627Z,18.50
2017-09-29T21:00:21.766Z,18.49
2017-09-29T21:02:48.915Z,18.50
2017-09-29T21:05:16.053Z,18.49
2017-09-29T21:07:43.194Z,18.49
2017-09-29T21:10:10.337Z,18.49
2017-09-29T21:12:37.484Z,18.49
2017-09-29T21:15:04.619Z,18.48
2017-09-29T21:17:32.522Z,18.50
2017-09-29T21:19:59.844Z,18.53
2017-09-29T21:22:27.746Z,18.57
2017-09-29T21:24:54.884Z,18.64
2017-09-29T21:27:22.040Z,18.67
2017-09-29T21:29:49.196Z,18.72
2017-09-29T21:32:16.543Z,18.76
2017-09-29T21:34:43.695Z,18.77
2017-09-29T21:37:10.856Z,18.81
2017-09-29T21:39:38.008Z,18.81
2017-09-29T21:42:05.142Z,18.82
2017-09-29T21:44:32.277Z,18.83
2017-09-29T21:46:59.422Z,18.86
2017-09-29T21:49:27.320Z,18.74
2017-09-29T21:51:54.480Z,18.65
2017-09-29T21:54:21.648Z,18.60
2017-09-29T21:56:48.790Z,18.58
2017-09-29T21:59:15.945Z,18.57
2017-09-29T22:01:43.082Z,18.56
2017-09-29T22:04:10.235Z,18.55
2017-09-29T22:06:37.400Z,18.54
2017-09-29T22:09:04.555Z,18.53
2017-09-29T22:11:31.716Z,18.53
2017-09-29T22:13:58.875Z,18.53
2017-09-29T22:16:26.009Z,18.53
2017-09-29T22:18:53.145Z,18.52
2017-09-29T22:21:20.286Z,18.52
2017-09-29T22:23:47.433Z,18.52
2017-09-29T22:26:14.566Z,18.52
2017-09-29T22:28:41.891Z,18.51
2017-09-29T22:31:09.794Z,18.51
2017-09-29T22:33:36.952Z,18.51
2017-09-29T22:36:04.101Z,18.51
2017-09-29T22:38:31.237Z,18.51
2017-09-29T22:40:58.388Z,18.50
2017-09-29T22:43:25.539Z,18.51
2017-09-29T22:45:52.674Z,18.50
2017-09-29T22:48:19.817Z,18.50
2017-09-29T22:50:46.973Z,18.50
2017-09-29T22:53:14.128Z,18.50
2017-09-29T22:55:41.282Z,18.50
2017-09-29T22:58:08.425Z,18.50
2017-09-29T23:00:35.584Z,18.50
2017-09-29T23:03:02.739Z,18.49
2017-09-29T23:05:29.893Z,18.49
2017-09-29T23:07:57.049Z,18.50
2017-09-29T23:10:24.236Z,18.49
2017-09-29T23:12:51.394Z,18.49
2017-09-29T23:15:18.541Z,18.49
2017-09-29T23:17:45.681Z,18.48
2017-09-29T23:20:12.818Z,18.48
2017-09-29T23:22:39.980Z,18.48
2017-09-29T23:25:07.148Z,18.49
2017-09-29T23:27:34.311Z,18.48
2017-09-29T23:30:01.468Z,18.48
2017-09-29T23:32:28.608Z,18.49
2017-09-29T23:34:55.772Z,18.48
2017-09-29T23:37:22.928Z,18.48
2017-09-29T23:39:50.074Z,18.47
2017-09-29T23:42:17.247Z,18.48
2017-09-29T23:44:44.429Z,18.48
2017-09-29T23:47:11.582Z,18.48
2017-09-29T23:49:39.095Z,18.48
2017-09-29T23:52:06.237Z,18.47
2017-09-29T23:54:33.399Z,18.47
2017-09-29T23:57:00.559Z,18.47
2017-09-29T23:59:27.723Z,18.47
